sensor_id;sensor_type;location;lat;lon;timestamp;temperature;humidity
6307;DHT22;3186;54.062;9.962;2023-06-26T00:02:18;24.10;12.90
6307;DHT22;3186;54.062;9.962;2023-06-26T00:04:44;24.00;13.20
6307;DHT22;3186;54.062;9.962;2023-06-26T00:07:10;24.00;12.90
6307;DHT22;3186;54.062;9.962;2023-06-26T00:09:36;24.00;15.00
6307;DHT22;3186;54.062;9.962;2023-06-26T00:12:03;23.90;14.70
6307;DHT22;3186;54.062;9.962;2023-06-26T00:14:29;24.00;15.20
6307;DHT22;3186;54.062;9.962;2023-06-26T00:16:55;23.80;14.40
6307;DHT22;3186;54.062;9.962;2023-06-26T00:19:21;23.80;15.20
6307;DHT22;3186;54.062;9.962;2023-06-26T00:21:47;23.70;15.30
6307;DHT22;3186;54.062;9.962;2023-06-26T00:24:14;23.70;16.20
6307;DHT22;3186;54.062;9.962;2023-06-26T00:26:40;23.70;15.40
6307;DHT22;3186;54.062;9.962;2023-06-26T00:29:06;23.70;16.50
6307;DHT22;3186;54.062;9.962;2023-06-26T00:31:32;23.60;17.20
6307;DHT22;3186;54.062;9.962;2023-06-26T00:34:01;23.60;17.50
6307;DHT22;3186;54.062;9.962;2023-06-26T00:36:27;23.60;16.90
6307;DHT22;3186;54.062;9.962;2023-06-26T00:38:53;23.60;18.00
6307;DHT22;3186;54.062;9.962;2023-06-26T00:41:19;23.60;18.50
6307;DHT22;3186;54.062;9.962;2023-06-26T00:43:45;23.50;19.10
6307;DHT22;3186;54.062;9.962;2023-06-26T00:46:13;23.50;18.80
6307;DHT22;3186;54.062;9.962;2023-06-26T00:48:42;23.40;23.30
6307;DHT22;3186;54.062;9.962;2023-06-26T00:51:08;23.40;20.90
6307;DHT22;3186;54.062;9.962;2023-06-26T00:53:34;23.40;20.80
6307;DHT22;3186;54.062;9.962;2023-06-26T00:56:03;23.30;20.20
6307;DHT22;3186;54.062;9.962;2023-06-26T00:58:30;23.30;21.60
6307;DHT22;3186;54.062;9.962;2023-06-26T01:00:57;23.30;22.00
6307;DHT22;3186;54.062;9.962;2023-06-26T01:03:24;23.30;22.40
6307;DHT22;3186;54.062;9.962;2023-06-26T01:05:55;23.30;21.60
6307;DHT22;3186;54.062;9.962;2023-06-26T01:08:22;23.30;23.00
6307;DHT22;3186;54.062;9.962;2023-06-26T01:10:50;23.30;23.20
6307;DHT22;3186;54.062;9.962;2023-06-26T01:13:17;23.20;23.60
6307;DHT22;3186;54.062;9.962;2023-06-26T01:15:45;23.20;23.40
6307;DHT22;3186;54.062;9.962;2023-06-26T01:18:12;23.10;25.00
6307;DHT22;3186;54.062;9.962;2023-06-26T01:20:41;23.10;24.90
6307;DHT22;3186;54.062;9.962;2023-06-26T01:28:35;23.00;26.20
6307;DHT22;3186;54.062;9.962;2023-06-26T01:31:03;23.00;26.70
6307;DHT22;3186;54.062;9.962;2023-06-26T01:33:30;23.00;27.30
6307;DHT22;3186;54.062;9.962;2023-06-26T01:35:56;22.90;26.60
6307;DHT22;3186;54.062;9.962;2023-06-26T01:38:22;22.90;28.10
6307;DHT22;3186;54.062;9.962;2023-06-26T01:40:57;22.80;28.60
6307;DHT22;3186;54.062;9.962;2023-06-26T01:45:56;22.70;29.10
6307;DHT22;3186;54.062;9.962;2023-06-26T01:48:32;22.70;29.90
6307;DHT22;3186;54.062;9.962;2023-06-26T01:51:01;22.70;30.40
6307;DHT22;3186;54.062;9.962;2023-06-26T01:53:34;22.70;31.40
6307;DHT22;3186;54.062;9.962;2023-06-26T01:56:12;22.60;31.00
6307;DHT22;3186;54.062;9.962;2023-06-26T01:58:42;22.60;32.30
6307;DHT22;3186;54.062;9.962;2023-06-26T02:01:09;22.60;32.90
6307;DHT22;3186;54.062;9.962;2023-06-26T02:03:35;22.60;33.50
6307;DHT22;3186;54.062;9.962;2023-06-26T02:06:01;22.50;33.10
6307;DHT22;3186;54.062;9.962;2023-06-26T02:08:27;22.50;34.20
6307;DHT22;3186;54.062;9.962;2023-06-26T02:10:56;22.50;35.00
6307;DHT22;3186;54.062;9.962;2023-06-26T02:13:21;22.50;35.60
6307;DHT22;3186;54.062;9.962;2023-06-26T02:15:48;22.40;35.70
6307;DHT22;3186;54.062;9.962;2023-06-26T02:18:14;22.40;36.50
6307;DHT22;3186;54.062;9.962;2023-06-26T02:20:40;22.40;37.00
6307;DHT22;3186;54.062;9.962;2023-06-26T02:23:06;22.40;38.70
6307;DHT22;3186;54.062;9.962;2023-06-26T02:25:31;22.30;37.50
6307;DHT22;3186;54.062;9.962;2023-06-26T02:27:57;22.30;38.80
6307;DHT22;3186;54.062;9.962;2023-06-26T02:30:23;22.30;38.60
6307;DHT22;3186;54.062;9.962;2023-06-26T02:32:49;22.30;38.80
6307;DHT22;3186;54.062;9.962;2023-06-26T02:35:17;22.20;37.60
6307;DHT22;3186;54.062;9.962;2023-06-26T02:37:43;22.20;39.30
6307;DHT22;3186;54.062;9.962;2023-06-26T02:40:10;22.20;40.00
6307;DHT22;3186;54.062;9.962;2023-06-26T02:42:37;22.20;40.60
6307;DHT22;3186;54.062;9.962;2023-06-26T02:45:04;22.10;40.60
6307;DHT22;3186;54.062;9.962;2023-06-26T02:47:31;22.10;41.50
6307;DHT22;3186;54.062;9.962;2023-06-26T02:49:57;22.10;41.90
6307;DHT22;3186;54.062;9.962;2023-06-26T02:52:23;22.10;42.80
6307;DHT22;3186;54.062;9.962;2023-06-26T02:54:49;22.00;42.50
6307;DHT22;3186;54.062;9.962;2023-06-26T02:57:15;22.00;41.90
6307;DHT22;3186;54.062;9.962;2023-06-26T02:59:43;22.00;44.00
6307;DHT22;3186;54.062;9.962;2023-06-26T03:02:10;22.00;44.20
6307;DHT22;3186;54.062;9.962;2023-06-26T03:04:44;21.90;45.20
6307;DHT22;3186;54.062;9.962;2023-06-26T03:07:13;21.90;43.50
6307;DHT22;3186;54.062;9.962;2023-06-26T03:09:40;21.90;44.10
6307;DHT22;3186;54.062;9.962;2023-06-26T03:12:07;21.80;45.00
6307;DHT22;3186;54.062;9.962;2023-06-26T03:14:33;21.90;46.00
6307;DHT22;3186;54.062;9.962;2023-06-26T03:17:00;21.90;45.60
6307;DHT22;3186;54.062;9.962;2023-06-26T03:19:29;21.80;46.50
6307;DHT22;3186;54.062;9.962;2023-06-26T03:22:15;21.80;47.70
6307;DHT22;3186;54.062;9.962;2023-06-26T03:24:41;21.90;48.20
6307;DHT22;3186;54.062;9.962;2023-06-26T03:27:09;21.80;46.70
6307;DHT22;3186;54.062;9.962;2023-06-26T03:29:36;21.80;49.70
6307;DHT22;3186;54.062;9.962;2023-06-26T03:32:01;21.80;50.00
6307;DHT22;3186;54.062;9.962;2023-06-26T03:34:28;21.80;50.50
6307;DHT22;3186;54.062;9.962;2023-06-26T03:36:54;21.70;48.00
6307;DHT22;3186;54.062;9.962;2023-06-26T03:39:20;21.70;49.30
6307;DHT22;3186;54.062;9.962;2023-06-26T03:44:12;21.70;50.40
6307;DHT22;3186;54.062;9.962;2023-06-26T03:46:44;21.60;51.20
6307;DHT22;3186;54.062;9.962;2023-06-26T03:49:10;21.60;52.30
6307;DHT22;3186;54.062;9.962;2023-06-26T03:51:37;21.60;52.60
6307;DHT22;3186;54.062;9.962;2023-06-26T03:54:03;21.60;53.60
6307;DHT22;3186;54.062;9.962;2023-06-26T03:56:28;21.60;53.10
6307;DHT22;3186;54.062;9.962;2023-06-26T03:58:54;21.60;55.00
6307;DHT22;3186;54.062;9.962;2023-06-26T04:01:20;21.60;55.50
6307;DHT22;3186;54.062;9.962;2023-06-26T04:03:48;21.60;55.60
6307;DHT22;3186;54.062;9.962;2023-06-26T04:06:14;21.60;55.60
6307;DHT22;3186;54.062;9.962;2023-06-26T04:08:40;21.60;55.50
6307;DHT22;3186;54.062;9.962;2023-06-26T04:11:05;21.50;58.60
6307;DHT22;3186;54.062;9.962;2023-06-26T04:13:32;21.60;57.40
6307;DHT22;3186;54.062;9.962;2023-06-26T04:15:58;21.50;57.80
6307;DHT22;3186;54.062;9.962;2023-06-26T04:18:24;21.60;59.40
6307;DHT22;3186;54.062;9.962;2023-06-26T04:21:12;21.50;61.20
6307;DHT22;3186;54.062;9.962;2023-06-26T04:23:40;21.50;60.70
6307;DHT22;3186;54.062;9.962;2023-06-26T04:26:07;21.50;62.80
6307;DHT22;3186;54.062;9.962;2023-06-26T04:28:34;21.50;64.50
6307;DHT22;3186;54.062;9.962;2023-06-26T04:31:03;21.60;61.20
6307;DHT22;3186;54.062;9.962;2023-06-26T04:33:29;21.60;61.30
6307;DHT22;3186;54.062;9.962;2023-06-26T04:35:55;21.50;79.90
6307;DHT22;3186;54.062;9.962;2023-06-26T04:38:21;21.50;68.30
6307;DHT22;3186;54.062;9.962;2023-06-26T04:40:48;21.50;68.50
6307;DHT22;3186;54.062;9.962;2023-06-26T04:43:14;21.50;75.50
6307;DHT22;3186;54.062;9.962;2023-06-26T04:45:40;21.60;62.70
6307;DHT22;3186;54.062;9.962;2023-06-26T04:48:06;21.60;65.10
6307;DHT22;3186;54.062;9.962;2023-06-26T04:50:32;21.60;68.00
6307;DHT22;3186;54.062;9.962;2023-06-26T04:52:59;21.60;74.40
6307;DHT22;3186;54.062;9.962;2023-06-26T04:55:25;21.70;72.70
6307;DHT22;3186;54.062;9.962;2023-06-26T04:57:51;21.70;70.30
6307;DHT22;3186;54.062;9.962;2023-06-26T05:00:18;21.70;84.90
6307;DHT22;3186;54.062;9.962;2023-06-26T05:02:44;21.70;90.90
6307;DHT22;3186;54.062;9.962;2023-06-26T05:05:10;21.80;96.50
6307;DHT22;3186;54.062;9.962;2023-06-26T05:07:37;21.80;92.20
6307;DHT22;3186;54.062;9.962;2023-06-26T05:10:04;21.80;92.20
6307;DHT22;3186;54.062;9.962;2023-06-26T05:12:30;21.90;67.90
6307;DHT22;3186;54.062;9.962;2023-06-26T05:14:56;22.00;99.90
6307;DHT22;3186;54.062;9.962;2023-06-26T05:17:22;22.00;99.90
6307;DHT22;3186;54.062;9.962;2023-06-26T05:19:51;22.10;99.30
6307;DHT22;3186;54.062;9.962;2023-06-26T05:22:17;22.20;99.90
6307;DHT22;3186;54.062;9.962;2023-06-26T05:24:46;22.30;93.50
6307;DHT22;3186;54.062;9.962;2023-06-26T05:27:13;22.50;99.40
6307;DHT22;3186;54.062;9.962;2023-06-26T05:29:48;22.50;97.00
6307;DHT22;3186;54.062;9.962;2023-06-26T05:32:16;22.70;92.80
6307;DHT22;3186;54.062;9.962;2023-06-26T05:34:48;22.70;94.40
6307;DHT22;3186;54.062;9.962;2023-06-26T05:37:21;23.00;99.90
6307;DHT22;3186;54.062;9.962;2023-06-26T05:39:51;23.20;95.10
6307;DHT22;3186;54.062;9.962;2023-06-26T05:42:17;23.30;94.20
6307;DHT22;3186;54.062;9.962;2023-06-26T05:44:43;23.50;93.50
6307;DHT22;3186;54.062;9.962;2023-06-26T05:47:09;23.60;94.10
6307;DHT22;3186;54.062;9.962;2023-06-26T05:49:35;23.80;98.40
6307;DHT22;3186;54.062;9.962;2023-06-26T05:52:01;24.00;91.30
6307;DHT22;3186;54.062;9.962;2023-06-26T05:54:27;24.10;82.40
6307;DHT22;3186;54.062;9.962;2023-06-26T05:56:57;24.30;93.40
6307;DHT22;3186;54.062;9.962;2023-06-26T05:59:25;24.40;92.20
6307;DHT22;3186;54.062;9.962;2023-06-26T06:01:52;24.40;92.60
6307;DHT22;3186;54.062;9.962;2023-06-26T06:04:18;24.60;90.50
6307;DHT22;3186;54.062;9.962;2023-06-26T06:06:44;24.90;87.60
6307;DHT22;3186;54.062;9.962;2023-06-26T06:09:10;25.10;86.10
6307;DHT22;3186;54.062;9.962;2023-06-26T06:11:35;25.30;74.40
6307;DHT22;3186;54.062;9.962;2023-06-26T06:14:02;25.30;74.60
6307;DHT22;3186;54.062;9.962;2023-06-26T06:16:28;25.40;68.30
6307;DHT22;3186;54.062;9.962;2023-06-26T06:18:55;25.30;66.20
6307;DHT22;3186;54.062;9.962;2023-06-26T06:21:21;25.30;69.30
6307;DHT22;3186;54.062;9.962;2023-06-26T06:23:47;25.50;67.60
6307;DHT22;3186;54.062;9.962;2023-06-26T06:26:13;25.80;64.40
6307;DHT22;3186;54.062;9.962;2023-06-26T06:28:40;25.90;65.80
6307;DHT22;3186;54.062;9.962;2023-06-26T06:31:06;26.10;61.70
6307;DHT22;3186;54.062;9.962;2023-06-26T06:33:32;26.20;55.80
6307;DHT22;3186;54.062;9.962;2023-06-26T06:35:58;26.20;58.00
6307;DHT22;3186;54.062;9.962;2023-06-26T06:38:24;26.40;56.70
6307;DHT22;3186;54.062;9.962;2023-06-26T06:40:50;26.60;56.40
6307;DHT22;3186;54.062;9.962;2023-06-26T06:43:15;26.90;47.30
6307;DHT22;3186;54.062;9.962;2023-06-26T06:45:41;26.90;45.50
6307;DHT22;3186;54.062;9.962;2023-06-26T06:48:07;27.10;45.50
6307;DHT22;3186;54.062;9.962;2023-06-26T06:50:34;27.00;42.90
6307;DHT22;3186;54.062;9.962;2023-06-26T06:53:00;27.00;43.70
6307;DHT22;3186;54.062;9.962;2023-06-26T06:55:25;27.50;42.90
6307;DHT22;3186;54.062;9.962;2023-06-26T06:57:51;27.50;43.00
6307;DHT22;3186;54.062;9.962;2023-06-26T07:00:17;27.70;34.80
6307;DHT22;3186;54.062;9.962;2023-06-26T07:02:44;27.60;38.40
6307;DHT22;3186;54.062;9.962;2023-06-26T07:05:12;27.50;31.50
6307;DHT22;3186;54.062;9.962;2023-06-26T07:07:38;27.60;32.40
6307;DHT22;3186;54.062;9.962;2023-06-26T07:10:07;27.80;31.90
6307;DHT22;3186;54.062;9.962;2023-06-26T07:12:36;28.10;34.50
6307;DHT22;3186;54.062;9.962;2023-06-26T07:15:03;28.20;29.50
6307;DHT22;3186;54.062;9.962;2023-06-26T07:17:30;28.40;29.20
6307;DHT22;3186;54.062;9.962;2023-06-26T07:19:57;28.40;29.60
6307;DHT22;3186;54.062;9.962;2023-06-26T07:22:23;28.80;26.50
6307;DHT22;3186;54.062;9.962;2023-06-26T07:24:49;28.80;27.20
6307;DHT22;3186;54.062;9.962;2023-06-26T07:27:15;29.10;22.10
6307;DHT22;3186;54.062;9.962;2023-06-26T07:29:42;29.20;21.30
6307;DHT22;3186;54.062;9.962;2023-06-26T07:32:07;29.30;23.40
6307;DHT22;3186;54.062;9.962;2023-06-26T07:34:33;29.70;22.20
6307;DHT22;3186;54.062;9.962;2023-06-26T07:36:59;29.80;15.70
6307;DHT22;3186;54.062;9.962;2023-06-26T07:39:26;30.00;15.50
6307;DHT22;3186;54.062;9.962;2023-06-26T07:41:52;29.90;17.90
6307;DHT22;3186;54.062;9.962;2023-06-26T07:44:18;30.00;11.80
6307;DHT22;3186;54.062;9.962;2023-06-26T07:46:45;30.30;14.90
6307;DHT22;3186;54.062;9.962;2023-06-26T07:49:11;30.40;15.60
6307;DHT22;3186;54.062;9.962;2023-06-26T07:51:37;30.50;13.50
6307;DHT22;3186;54.062;9.962;2023-06-26T07:54:03;30.60;14.30
6307;DHT22;3186;54.062;9.962;2023-06-26T07:56:29;30.70;14.20
6307;DHT22;3186;54.062;9.962;2023-06-26T07:58:55;30.90;10.00
6307;DHT22;3186;54.062;9.962;2023-06-26T08:01:23;30.80;11.10
6307;DHT22;3186;54.062;9.962;2023-06-26T08:03:49;30.70;8.70
6307;DHT22;3186;54.062;9.962;2023-06-26T08:06:15;30.60;7.00
6307;DHT22;3186;54.062;9.962;2023-06-26T08:08:42;30.60;10.80
6307;DHT22;3186;54.062;9.962;2023-06-26T08:11:07;30.50;7.30
6307;DHT22;3186;54.062;9.962;2023-06-26T08:13:34;30.70;9.10
6307;DHT22;3186;54.062;9.962;2023-06-26T08:16:00;30.60;7.40
6307;DHT22;3186;54.062;9.962;2023-06-26T08:18:25;30.60;7.60
6307;DHT22;3186;54.062;9.962;2023-06-26T08:20:51;30.90;14.30
6307;DHT22;3186;54.062;9.962;2023-06-26T08:23:17;31.40;12.40
6307;DHT22;3186;54.062;9.962;2023-06-26T08:25:43;31.70;7.00
6307;DHT22;3186;54.062;9.962;2023-06-26T08:28:09;31.70;7.50
6307;DHT22;3186;54.062;9.962;2023-06-26T08:30:35;31.60;7.70
6307;DHT22;3186;54.062;9.962;2023-06-26T08:33:01;31.50;6.90
6307;DHT22;3186;54.062;9.962;2023-06-26T08:35:28;31.80;6.90
6307;DHT22;3186;54.062;9.962;2023-06-26T08:37:54;31.70;8.50
6307;DHT22;3186;54.062;9.962;2023-06-26T08:40:21;31.70;4.30
6307;DHT22;3186;54.062;9.962;2023-06-26T08:42:47;31.70;9.70
6307;DHT22;3186;54.062;9.962;2023-06-26T08:45:13;31.60;5.00
6307;DHT22;3186;54.062;9.962;2023-06-26T08:47:41;31.60;9.10
6307;DHT22;3186;54.062;9.962;2023-06-26T08:50:12;31.90;9.60
6307;DHT22;3186;54.062;9.962;2023-06-26T08:53:02;31.80;10.80
6307;DHT22;3186;54.062;9.962;2023-06-26T08:55:35;31.50;7.60
6307;DHT22;3186;54.062;9.962;2023-06-26T08:58:04;31.70;10.00
6307;DHT22;3186;54.062;9.962;2023-06-26T09:00:30;32.00;6.80
6307;DHT22;3186;54.062;9.962;2023-06-26T09:02:56;31.80;4.40
6307;DHT22;3186;54.062;9.962;2023-06-26T09:05:22;31.60;6.90
6307;DHT22;3186;54.062;9.962;2023-06-26T09:07:48;31.60;7.90
6307;DHT22;3186;54.062;9.962;2023-06-26T09:10:14;32.00;7.90
6307;DHT22;3186;54.062;9.962;2023-06-26T09:12:40;32.00;8.00
6307;DHT22;3186;54.062;9.962;2023-06-26T09:15:06;31.80;4.30
6307;DHT22;3186;54.062;9.962;2023-06-26T09:17:39;31.70;5.00
6307;DHT22;3186;54.062;9.962;2023-06-26T09:20:11;32.00;8.40
6307;DHT22;3186;54.062;9.962;2023-06-26T09:22:38;31.80;8.30
6307;DHT22;3186;54.062;9.962;2023-06-26T09:25:05;31.80;8.60
6307;DHT22;3186;54.062;9.962;2023-06-26T09:27:31;32.10;6.60
6307;DHT22;3186;54.062;9.962;2023-06-26T09:29:57;32.20;10.00
6307;DHT22;3186;54.062;9.962;2023-06-26T09:32:27;32.10;6.90
6307;DHT22;3186;54.062;9.962;2023-06-26T09:34:56;32.20;9.80
6307;DHT22;3186;54.062;9.962;2023-06-26T09:37:22;31.50;9.60
6307;DHT22;3186;54.062;9.962;2023-06-26T09:39:48;31.80;10.40
6307;DHT22;3186;54.062;9.962;2023-06-26T09:42:15;31.50;10.70
6307;DHT22;3186;54.062;9.962;2023-06-26T09:44:45;31.60;9.80
6307;DHT22;3186;54.062;9.962;2023-06-26T09:47:11;31.20;9.40
6307;DHT22;3186;54.062;9.962;2023-06-26T09:49:41;30.90;8.60
6307;DHT22;3186;54.062;9.962;2023-06-26T09:52:08;31.00;7.10
6307;DHT22;3186;54.062;9.962;2023-06-26T09:54:34;30.80;10.70
6307;DHT22;3186;54.062;9.962;2023-06-26T09:57:11;30.90;8.60
6307;DHT22;3186;54.062;9.962;2023-06-26T09:59:37;30.90;10.00
6307;DHT22;3186;54.062;9.962;2023-06-26T10:02:03;30.70;9.70
6307;DHT22;3186;54.062;9.962;2023-06-26T10:04:29;30.90;8.70
6307;DHT22;3186;54.062;9.962;2023-06-26T10:06:56;30.60;8.20
6307;DHT22;3186;54.062;9.962;2023-06-26T10:09:24;30.70;8.20
6307;DHT22;3186;54.062;9.962;2023-06-26T10:12:16;30.40;7.00
6307;DHT22;3186;54.062;9.962;2023-06-26T10:14:43;30.40;8.50
6307;DHT22;3186;54.062;9.962;2023-06-26T10:17:19;30.50;7.80
6307;DHT22;3186;54.062;9.962;2023-06-26T10:19:47;30.50;8.40
6307;DHT22;3186;54.062;9.962;2023-06-26T10:22:16;30.40;9.00
6307;DHT22;3186;54.062;9.962;2023-06-26T10:24:44;30.30;8.30
6307;DHT22;3186;54.062;9.962;2023-06-26T10:27:21;30.10;7.70
6307;DHT22;3186;54.062;9.962;2023-06-26T10:29:52;30.00;9.20
6307;DHT22;3186;54.062;9.962;2023-06-26T10:32:21;30.00;9.10
6307;DHT22;3186;54.062;9.962;2023-06-26T10:34:48;29.90;11.80
6307;DHT22;3186;54.062;9.962;2023-06-26T10:37:14;30.00;8.20
6307;DHT22;3186;54.062;9.962;2023-06-26T10:39:50;29.90;9.80
6307;DHT22;3186;54.062;9.962;2023-06-26T10:42:17;29.80;10.40
6307;DHT22;3186;54.062;9.962;2023-06-26T10:44:48;29.70;10.60
6307;DHT22;3186;54.062;9.962;2023-06-26T10:47:32;29.50;10.80
6307;DHT22;3186;54.062;9.962;2023-06-26T10:50:33;29.50;12.80
6307;DHT22;3186;54.062;9.962;2023-06-26T11:03:38;28.80;20.20
6307;DHT22;3186;54.062;9.962;2023-06-26T11:06:10;28.80;20.30
6307;DHT22;3186;54.062;9.962;2023-06-26T11:09:17;28.70;24.60
6307;DHT22;3186;54.062;9.962;2023-06-26T11:14:26;28.50;28.60
6307;DHT22;3186;54.062;9.962;2023-06-26T11:16:52;28.50;25.10
6307;DHT22;3186;54.062;9.962;2023-06-26T11:19:20;28.50;24.80
6307;DHT22;3186;54.062;9.962;2023-06-26T11:22:06;28.40;28.00
6307;DHT22;3186;54.062;9.962;2023-06-26T11:24:33;28.40;26.90
6307;DHT22;3186;54.062;9.962;2023-06-26T11:27:02;28.40;26.40
6307;DHT22;3186;54.062;9.962;2023-06-26T11:29:30;28.30;27.40
6307;DHT22;3186;54.062;9.962;2023-06-26T11:32:01;28.30;29.00
6307;DHT22;3186;54.062;9.962;2023-06-26T11:34:30;28.30;27.90
6307;DHT22;3186;54.062;9.962;2023-06-26T11:36:57;28.40;27.70
6307;DHT22;3186;54.062;9.962;2023-06-26T11:39:23;28.40;31.20
6307;DHT22;3186;54.062;9.962;2023-06-26T11:41:49;28.40;31.00
6307;DHT22;3186;54.062;9.962;2023-06-26T11:44:14;28.30;33.70
6307;DHT22;3186;54.062;9.962;2023-06-26T11:46:46;28.20;30.00
6307;DHT22;3186;54.062;9.962;2023-06-26T11:49:11;28.20;35.80
6307;DHT22;3186;54.062;9.962;2023-06-26T11:51:37;28.40;41.20
6307;DHT22;3186;54.062;9.962;2023-06-26T11:54:04;28.50;31.70
6307;DHT22;3186;54.062;9.962;2023-06-26T11:56:31;28.00;32.90
6307;DHT22;3186;54.062;9.962;2023-06-26T12:04:06;28.30;30.80
6307;DHT22;3186;54.062;9.962;2023-06-26T12:06:34;28.00;28.80
6307;DHT22;3186;54.062;9.962;2023-06-26T12:09:05;27.90;24.40
6307;DHT22;3186;54.062;9.962;2023-06-26T12:11:37;27.90;29.40
6307;DHT22;3186;54.062;9.962;2023-06-26T12:14:06;28.30;23.50
6307;DHT22;3186;54.062;9.962;2023-06-26T12:16:34;28.40;22.30
6307;DHT22;3186;54.062;9.962;2023-06-26T12:19:03;28.30;24.10
6307;DHT22;3186;54.062;9.962;2023-06-26T12:24:09;28.30;22.30
6307;DHT22;3186;54.062;9.962;2023-06-26T12:26:35;28.20;18.90
6307;DHT22;3186;54.062;9.962;2023-06-26T12:29:12;28.10;21.40
6307;DHT22;3186;54.062;9.962;2023-06-26T12:31:42;28.20;16.00
6307;DHT22;3186;54.062;9.962;2023-06-26T12:34:13;28.00;18.60
6307;DHT22;3186;54.062;9.962;2023-06-26T12:36:50;28.50;15.90
6307;DHT22;3186;54.062;9.962;2023-06-26T12:39:17;28.60;12.70
6307;DHT22;3186;54.062;9.962;2023-06-26T12:41:54;28.40;15.80
6307;DHT22;3186;54.062;9.962;2023-06-26T12:44:27;28.20;17.70
6307;DHT22;3186;54.062;9.962;2023-06-26T12:46:58;28.20;12.40
6307;DHT22;3186;54.062;9.962;2023-06-26T12:49:37;28.10;14.00
6307;DHT22;3186;54.062;9.962;2023-06-26T12:52:12;28.30;14.90
6307;DHT22;3186;54.062;9.962;2023-06-26T12:54:40;28.20;8.60
6307;DHT22;3186;54.062;9.962;2023-06-26T12:57:07;28.20;12.10
6307;DHT22;3186;54.062;9.962;2023-06-26T12:59:35;28.00;11.10
6307;DHT22;3186;54.062;9.962;2023-06-26T13:02:01;28.00;13.40
6307;DHT22;3186;54.062;9.962;2023-06-26T13:04:28;28.20;11.80
6307;DHT22;3186;54.062;9.962;2023-06-26T13:06:54;27.60;4.40
6307;DHT22;3186;54.062;9.962;2023-06-26T13:09:21;27.90;10.80
6307;DHT22;3186;54.062;9.962;2023-06-26T13:11:47;28.30;8.30
6307;DHT22;3186;54.062;9.962;2023-06-26T13:14:13;28.60;6.90
6307;DHT22;3186;54.062;9.962;2023-06-26T13:16:39;28.10;4.70
6307;DHT22;3186;54.062;9.962;2023-06-26T13:19:05;27.90;4.80
6307;DHT22;3186;54.062;9.962;2023-06-26T13:21:32;28.10;3.90
6307;DHT22;3186;54.062;9.962;2023-06-26T13:23:58;28.40;7.30
6307;DHT22;3186;54.062;9.962;2023-06-26T13:26:25;28.70;3.90
6307;DHT22;3186;54.062;9.962;2023-06-26T13:28:52;28.20;5.80
6307;DHT22;3186;54.062;9.962;2023-06-26T13:31:18;28.50;5.60
6307;DHT22;3186;54.062;9.962;2023-06-26T13:33:44;28.40;2.50
6307;DHT22;3186;54.062;9.962;2023-06-26T13:36:11;28.30;4.10
6307;DHT22;3186;54.062;9.962;2023-06-26T13:38:37;28.40;5.10
6307;DHT22;3186;54.062;9.962;2023-06-26T13:41:03;28.50;4.40
6307;DHT22;3186;54.062;9.962;2023-06-26T13:43:29;28.20;1.60
6307;DHT22;3186;54.062;9.962;2023-06-26T13:45:56;28.30;2.70
6307;DHT22;3186;54.062;9.962;2023-06-26T13:48:22;28.10;3.80
6307;DHT22;3186;54.062;9.962;2023-06-26T13:50:50;28.40;4.20
6307;DHT22;3186;54.062;9.962;2023-06-26T13:53:16;28.70;3.00
6307;DHT22;3186;54.062;9.962;2023-06-26T13:55:42;28.50;3.30
6307;DHT22;3186;54.062;9.962;2023-06-26T13:58:09;28.50;3.80
6307;DHT22;3186;54.062;9.962;2023-06-26T14:00:35;28.40;4.60
6307;DHT22;3186;54.062;9.962;2023-06-26T14:03:05;28.60;2.30
6307;DHT22;3186;54.062;9.962;2023-06-26T14:05:36;28.80;3.20
6307;DHT22;3186;54.062;9.962;2023-06-26T14:08:04;28.90;4.30
6307;DHT22;3186;54.062;9.962;2023-06-26T14:10:30;28.60;1.40
6307;DHT22;3186;54.062;9.962;2023-06-26T14:12:56;28.60;1.60
6307;DHT22;3186;54.062;9.962;2023-06-26T14:15:22;28.20;1.10
6307;DHT22;3186;54.062;9.962;2023-06-26T14:17:48;28.20;1.40
6307;DHT22;3186;54.062;9.962;2023-06-26T14:20:16;27.80;2.00
6307;DHT22;3186;54.062;9.962;2023-06-26T14:22:43;28.00;2.60
6307;DHT22;3186;54.062;9.962;2023-06-26T14:25:10;28.00;1.00
6307;DHT22;3186;54.062;9.962;2023-06-26T14:27:36;28.00;1.50
6307;DHT22;3186;54.062;9.962;2023-06-26T14:30:03;28.40;1.00
6307;DHT22;3186;54.062;9.962;2023-06-26T14:32:29;28.20;1.30
6307;DHT22;3186;54.062;9.962;2023-06-26T14:34:57;28.50;1.00
6307;DHT22;3186;54.062;9.962;2023-06-26T14:37:23;28.50;1.00
6307;DHT22;3186;54.062;9.962;2023-06-26T14:39:50;28.40;1.00
6307;DHT22;3186;54.062;9.962;2023-06-26T14:42:16;28.50;1.00
6307;DHT22;3186;54.062;9.962;2023-06-26T14:44:42;28.10;1.00
6307;DHT22;3186;54.062;9.962;2023-06-26T14:47:07;28.20;1.00
6307;DHT22;3186;54.062;9.962;2023-06-26T14:49:33;28.20;1.20
6307;DHT22;3186;54.062;9.962;2023-06-26T14:52:00;28.20;1.20
6307;DHT22;3186;54.062;9.962;2023-06-26T14:54:27;28.10;1.00
6307;DHT22;3186;54.062;9.962;2023-06-26T14:56:52;28.00;1.00
6307;DHT22;3186;54.062;9.962;2023-06-26T14:59:18;28.00;1.00
6307;DHT22;3186;54.062;9.962;2023-06-26T15:01:44;28.10;1.20
6307;DHT22;3186;54.062;9.962;2023-06-26T15:04:10;28.20;1.00
6307;DHT22;3186;54.062;9.962;2023-06-26T15:06:36;28.00;1.00
6307;DHT22;3186;54.062;9.962;2023-06-26T15:09:02;28.20;1.00
6307;DHT22;3186;54.062;9.962;2023-06-26T15:11:28;28.00;1.00
6307;DHT22;3186;54.062;9.962;2023-06-26T15:13:56;28.10;1.00
6307;DHT22;3186;54.062;9.962;2023-06-26T15:16:22;27.80;1.00
6307;DHT22;3186;54.062;9.962;2023-06-26T15:18:48;28.00;1.00
6307;DHT22;3186;54.062;9.962;2023-06-26T15:21:13;28.10;1.00
6307;DHT22;3186;54.062;9.962;2023-06-26T15:23:39;28.10;1.00
6307;DHT22;3186;54.062;9.962;2023-06-26T15:26:05;28.00;1.00
6307;DHT22;3186;54.062;9.962;2023-06-26T15:28:31;28.00;1.00
6307;DHT22;3186;54.062;9.962;2023-06-26T15:30:57;27.90;1.00
6307;DHT22;3186;54.062;9.962;2023-06-26T15:33:23;27.70;1.00
6307;DHT22;3186;54.062;9.962;2023-06-26T15:35:49;27.70;1.00
6307;DHT22;3186;54.062;9.962;2023-06-26T15:38:14;27.70;1.00
6307;DHT22;3186;54.062;9.962;2023-06-26T15:40:40;27.60;1.00
6307;DHT22;3186;54.062;9.962;2023-06-26T15:43:06;27.70;1.30
6307;DHT22;3186;54.062;9.962;2023-06-26T15:45:32;27.60;1.00
6307;DHT22;3186;54.062;9.962;2023-06-26T15:47:58;27.60;1.40
6307;DHT22;3186;54.062;9.962;2023-06-26T15:50:23;27.50;1.00
6307;DHT22;3186;54.062;9.962;2023-06-26T15:52:50;27.50;1.00
6307;DHT22;3186;54.062;9.962;2023-06-26T15:55:16;27.40;1.00
6307;DHT22;3186;54.062;9.962;2023-06-26T15:57:42;27.40;1.60
6307;DHT22;3186;54.062;9.962;2023-06-26T16:00:08;27.30;1.50
6307;DHT22;3186;54.062;9.962;2023-06-26T16:02:41;27.30;1.90
6307;DHT22;3186;54.062;9.962;2023-06-26T16:05:07;27.20;1.80
6307;DHT22;3186;54.062;9.962;2023-06-26T16:07:33;27.40;1.00
6307;DHT22;3186;54.062;9.962;2023-06-26T16:09:59;27.50;1.60
6307;DHT22;3186;54.062;9.962;2023-06-26T16:12:25;27.10;1.80
6307;DHT22;3186;54.062;9.962;2023-06-26T16:14:51;27.20;2.30
6307;DHT22;3186;54.062;9.962;2023-06-26T16:17:17;27.10;1.00
6307;DHT22;3186;54.062;9.962;2023-06-26T16:19:43;27.10;2.20
6307;DHT22;3186;54.062;9.962;2023-06-26T16:22:10;27.00;1.80
6307;DHT22;3186;54.062;9.962;2023-06-26T16:24:36;27.10;2.00
6307;DHT22;3186;54.062;9.962;2023-06-26T16:27:02;27.00;1.40
6307;DHT22;3186;54.062;9.962;2023-06-26T16:29:28;26.90;2.20
6307;DHT22;3186;54.062;9.962;2023-06-26T16:31:54;26.80;2.70
6307;DHT22;3186;54.062;9.962;2023-06-26T16:34:20;26.90;1.40
6307;DHT22;3186;54.062;9.962;2023-06-26T16:36:47;26.90;1.40
6307;DHT22;3186;54.062;9.962;2023-06-26T16:39:17;26.90;2.30
6307;DHT22;3186;54.062;9.962;2023-06-26T16:41:47;26.90;2.20